sensor_id;sensor_type;location;lat;lon;timestamp;pressure;altitude;pressure_sealevel;temperature;humidity
44349;BME280;30068;50.986;4.564;2022-09-20T00:02:15;102485.06;;;12.36;85.42
44349;BME280;30068;50.986;4.564;2022-09-20T00:04:41;102489.13;;;12.14;86.26
44349;BME280;30068;50.986;4.564;2022-09-20T00:07:06;102477.25;;;12.04;86.27
44349;BME280;30068;50.986;4.564;2022-09-20T00:09:31;102471.69;;;12.21;85.96
44349;BME280;30068;50.986;4.564;2022-09-20T00:11:57;102477.03;;;12.36;84.91
44349;BME280;30068;50.986;4.564;2022-09-20T00:14:23;102469.59;;;12.41;83.93
44349;BME280;30068;50.986;4.564;2022-09-20T00:16:48;102467.56;;;12.44;83.50
44349;BME280;30068;50.986;4.564;2022-09-20T00:19:16;102473.69;;;12.46;83.16
44349;BME280;30068;50.986;4.564;2022-09-20T00:21:41;102478.09;;;12.47;83.46
44349;BME280;30068;50.986;4.564;2022-09-20T00:24:08;102471.78;;;12.48;83.08
44349;BME280;30068;50.986;4.564;2022-09-20T00:26:34;102477.97;;;12.49;83.09
44349;BME280;30068;50.986;4.564;2022-09-20T00:29:00;102475.28;;;12.49;82.97
44349;BME280;30068;50.986;4.564;2022-09-20T00:31:26;102478.94;;;12.48;83.32
44349;BME280;30068;50.986;4.564;2022-09-20T00:33:53;102470.91;;;12.48;83.35
44349;BME280;30068;50.986;4.564;2022-09-20T00:36:37;102474.47;;;12.48;83.41
44349;BME280;30068;50.986;4.564;2022-09-20T00:39:03;102471.66;;;12.50;83.08
44349;BME280;30068;50.986;4.564;2022-09-20T00:41:29;102474.34;;;12.50;83.45
44349;BME280;30068;50.986;4.564;2022-09-20T00:43:55;102472.91;;;12.44;83.94
44349;BME280;30068;50.986;4.564;2022-09-20T00:46:22;102474.75;;;12.01;84.85
44349;BME280;30068;50.986;4.564;2022-09-20T00:48:51;102470.88;;;11.63;86.62
44349;BME280;30068;50.986;4.564;2022-09-20T00:51:19;102471.66;;;11.65;86.68
44349;BME280;30068;50.986;4.564;2022-09-20T00:53:47;102472.28;;;11.54;87.35
44349;BME280;30068;50.986;4.564;2022-09-20T00:56:24;102471.09;;;11.74;86.75
44349;BME280;30068;50.986;4.564;2022-09-20T00:58:58;102471.31;;;11.85;86.49
44349;BME280;30068;50.986;4.564;2022-09-20T01:01:25;102470.38;;;12.00;85.67
44349;BME280;30068;50.986;4.564;2022-09-20T01:03:51;102471.59;;;12.09;85.07
44349;BME280;30068;50.986;4.564;2022-09-20T01:06:16;102468.75;;;12.12;84.56
44349;BME280;30068;50.986;4.564;2022-09-20T01:08:42;102470.38;;;11.86;85.23
44349;BME280;30068;50.986;4.564;2022-09-20T01:11:09;102471.50;;;11.96;85.45
44349;BME280;30068;50.986;4.564;2022-09-20T01:13:34;102454.97;;;12.04;84.78
44349;BME280;30068;50.986;4.564;2022-09-20T01:16:00;102460.81;;;12.10;84.53
44349;BME280;30068;50.986;4.564;2022-09-20T01:18:27;102463.00;;;11.90;85.36
44349;BME280;30068;50.986;4.564;2022-09-20T01:20:53;102461.53;;;11.70;85.90
44349;BME280;30068;50.986;4.564;2022-09-20T01:23:29;102460.53;;;11.42;87.55
44349;BME280;30068;50.986;4.564;2022-09-20T01:28:27;102460.75;;;11.68;86.69
44349;BME280;30068;50.986;4.564;2022-09-20T01:33:40;102461.75;;;11.95;85.45
44349;BME280;30068;50.986;4.564;2022-09-20T01:36:08;102453.25;;;12.03;85.20
44349;BME280;30068;50.986;4.564;2022-09-20T01:38:43;102454.69;;;12.08;84.86
44349;BME280;30068;50.986;4.564;2022-09-20T01:41:19;102455.38;;;12.12;85.23
44349;BME280;30068;50.986;4.564;2022-09-20T01:43:50;102463.47;;;11.96;86.04
44349;BME280;30068;50.986;4.564;2022-09-20T01:48:43;102462.91;;;11.91;86.37
44349;BME280;30068;50.986;4.564;2022-09-20T02:10:09;102477.53;;;11.85;87.74
44349;BME280;30068;50.986;4.564;2022-09-20T02:12:51;102478.41;;;12.00;86.62
44349;BME280;30068;50.986;4.564;2022-09-20T02:23:11;102481.00;;;11.58;88.62
44349;BME280;30068;50.986;4.564;2022-09-20T02:30:50;102476.09;;;11.94;87.18
44349;BME280;30068;50.986;4.564;2022-09-20T02:36:44;102479.66;;;11.65;89.05
44349;BME280;30068;50.986;4.564;2022-09-20T02:46:17;102475.63;;;12.02;87.33
44349;BME280;30068;50.986;4.564;2022-09-20T02:49:33;102472.47;;;12.09;87.10
44349;BME280;30068;50.986;4.564;2022-09-20T02:51:38;102471.91;;;12.18;86.82
44349;BME280;30068;50.986;4.564;2022-09-20T02:54:14;102469.59;;;12.26;86.27
44349;BME280;30068;50.986;4.564;2022-09-20T02:56:57;102469.31;;;12.31;86.09
44349;BME280;30068;50.986;4.564;2022-09-20T02:59:30;102465.78;;;12.16;86.97
44349;BME280;30068;50.986;4.564;2022-09-20T03:12:25;102455.25;;;12.42;86.02
44349;BME280;30068;50.986;4.564;2022-09-20T03:15:00;102455.63;;;12.36;86.04
44349;BME280;30068;50.986;4.564;2022-09-20T03:17:39;102451.34;;;12.33;86.28
44349;BME280;30068;50.986;4.564;2022-09-20T03:20:21;102456.50;;;12.22;86.78
44349;BME280;30068;50.986;4.564;2022-09-20T03:25:35;102452.44;;;12.43;85.83
44349;BME280;30068;50.986;4.564;2022-09-20T03:30:46;102450.00;;;12.40;85.99
44349;BME280;30068;50.986;4.564;2022-09-20T03:33:19;102452.88;;;12.09;87.43
44349;BME280;30068;50.986;4.564;2022-09-20T03:41:11;102445.19;;;12.45;85.98
44349;BME280;30068;50.986;4.564;2022-09-20T03:46:20;102451.91;;;11.96;88.50
44349;BME280;30068;50.986;4.564;2022-09-20T04:02:20;102453.00;;;12.07;88.06
44349;BME280;30068;50.986;4.564;2022-09-20T04:04:56;102456.22;;;12.26;87.43
44349;BME280;30068;50.986;4.564;2022-09-20T04:08:08;102450.66;;;12.15;87.75
44349;BME280;30068;50.986;4.564;2022-09-20T04:15:14;102454.31;;;11.86;88.49
44349;BME280;30068;50.986;4.564;2022-09-20T04:22:45;102455.94;;;11.88;87.30
44349;BME280;30068;50.986;4.564;2022-09-20T04:25:20;102449.16;;;11.83;87.88
44349;BME280;30068;50.986;4.564;2022-09-20T04:27:49;102442.72;;;11.71;87.96
44349;BME280;30068;50.986;4.564;2022-09-20T04:30:19;102455.22;;;11.57;88.46
44349;BME280;30068;50.986;4.564;2022-09-20T04:32:50;102483.09;;;11.07;90.09
44349;BME280;30068;50.986;4.564;2022-09-20T04:38:11;102462.22;;;11.29;91.30
44349;BME280;30068;50.986;4.564;2022-09-20T04:40:55;102477.91;;;11.20;91.72
44349;BME280;30068;50.986;4.564;2022-09-20T04:46:12;102473.34;;;11.52;91.01
44349;BME280;30068;50.986;4.564;2022-09-20T05:17:20;102480.56;;;12.22;86.10
44349;BME280;30068;50.986;4.564;2022-09-20T05:30:04;102486.63;;;12.11;85.36
44349;BME280;30068;50.986;4.564;2022-09-20T05:35:30;102481.44;;;12.08;84.85
44349;BME280;30068;50.986;4.564;2022-09-20T05:38:16;102486.91;;;12.07;84.74
44349;BME280;30068;50.986;4.564;2022-09-20T05:46:13;102498.19;;;11.98;84.19
44349;BME280;30068;50.986;4.564;2022-09-20T06:04:28;102500.44;;;11.75;84.69
44349;BME280;30068;50.986;4.564;2022-09-20T06:21:58;102525.59;;;12.01;85.25
44349;BME280;30068;50.986;4.564;2022-09-20T06:26:55;102521.78;;;12.05;85.44
44349;BME280;30068;50.986;4.564;2022-09-20T06:29:28;102520.63;;;12.09;85.16
44349;BME280;30068;50.986;4.564;2022-09-20T06:31:53;102519.59;;;12.12;85.12
44349;BME280;30068;50.986;4.564;2022-09-20T06:34:18;102521.97;;;12.16;85.36
44349;BME280;30068;50.986;4.564;2022-09-20T06:36:54;102517.31;;;12.20;85.25
44349;BME280;30068;50.986;4.564;2022-09-20T06:39:52;102519.78;;;12.23;85.45
44349;BME280;30068;50.986;4.564;2022-09-20T06:42:39;102524.75;;;12.29;85.40
44349;BME280;30068;50.986;4.564;2022-09-20T06:45:06;102514.72;;;12.33;85.87
44349;BME280;30068;50.986;4.564;2022-09-20T06:47:31;102521.59;;;12.22;85.90
44349;BME280;30068;50.986;4.564;2022-09-20T06:49:56;102518.81;;;12.38;85.31
44349;BME280;30068;50.986;4.564;2022-09-20T06:52:23;102515.66;;;12.46;85.35
44349;BME280;30068;50.986;4.564;2022-09-20T06:54:49;102520.63;;;12.52;85.37
44349;BME280;30068;50.986;4.564;2022-09-20T06:57:17;102522.75;;;12.47;85.47
44349;BME280;30068;50.986;4.564;2022-09-20T06:59:43;102520.22;;;12.58;85.75
44349;BME280;30068;50.986;4.564;2022-09-20T07:02:09;102516.59;;;12.59;85.03
44349;BME280;30068;50.986;4.564;2022-09-20T07:04:34;102530.38;;;12.67;85.32
44349;BME280;30068;50.986;4.564;2022-09-20T07:07:00;102518.78;;;12.66;84.57
44349;BME280;30068;50.986;4.564;2022-09-20T07:09:25;102523.09;;;12.69;84.66
44349;BME280;30068;50.986;4.564;2022-09-20T07:11:52;102524.16;;;12.66;84.51
44349;BME280;30068;50.986;4.564;2022-09-20T07:14:17;102525.38;;;12.75;84.42
44349;BME280;30068;50.986;4.564;2022-09-20T07:16:43;102528.47;;;12.69;83.90
44349;BME280;30068;50.986;4.564;2022-09-20T07:19:08;102525.97;;;12.66;83.98
44349;BME280;30068;50.986;4.564;2022-09-20T07:21:33;102520.22;;;12.72;83.55
44349;BME280;30068;50.986;4.564;2022-09-20T07:23:58;102516.78;;;12.56;83.85
44349;BME280;30068;50.986;4.564;2022-09-20T07:26:24;102526.16;;;12.49;84.83
44349;BME280;30068;50.986;4.564;2022-09-20T07:28:50;102527.16;;;12.34;85.76
44349;BME280;30068;50.986;4.564;2022-09-20T07:31:16;102526.47;;;12.44;85.47
44349;BME280;30068;50.986;4.564;2022-09-20T07:33:41;102530.38;;;12.53;84.74
44349;BME280;30068;50.986;4.564;2022-09-20T07:36:08;102531.31;;;12.66;85.01
44349;BME280;30068;50.986;4.564;2022-09-20T07:38:33;102541.94;;;12.68;85.23
44349;BME280;30068;50.986;4.564;2022-09-20T07:40:59;102545.88;;;12.48;86.14
44349;BME280;30068;50.986;4.564;2022-09-20T07:43:26;102543.84;;;12.51;86.15
44349;BME280;30068;50.986;4.564;2022-09-20T07:45:52;102554.56;;;12.37;86.35
44349;BME280;30068;50.986;4.564;2022-09-20T07:48:22;102552.75;;;12.52;85.09
44349;BME280;30068;50.986;4.564;2022-09-20T07:51:03;102553.69;;;12.65;83.97
44349;BME280;30068;50.986;4.564;2022-09-20T07:53:28;102553.47;;;12.96;83.72
44349;BME280;30068;50.986;4.564;2022-09-20T07:58:32;102558.50;;;12.60;85.74
44349;BME280;30068;50.986;4.564;2022-09-20T08:00:58;102565.19;;;12.53;85.50
44349;BME280;30068;50.986;4.564;2022-09-20T08:03:24;102572.34;;;12.38;86.04
44349;BME280;30068;50.986;4.564;2022-09-20T08:05:50;102575.97;;;12.37;87.90
44349;BME280;30068;50.986;4.564;2022-09-20T08:08:16;102575.50;;;12.45;87.12
44349;BME280;30068;50.986;4.564;2022-09-20T08:10:42;102568.91;;;12.50;87.10
44349;BME280;30068;50.986;4.564;2022-09-20T08:13:08;102583.38;;;12.62;86.36
44349;BME280;30068;50.986;4.564;2022-09-20T08:15:33;102579.91;;;12.60;86.60
44349;BME280;30068;50.986;4.564;2022-09-20T08:17:58;102580.75;;;12.75;85.99
44349;BME280;30068;50.986;4.564;2022-09-20T08:20:23;102577.50;;;12.70;85.78
44349;BME280;30068;50.986;4.564;2022-09-20T08:22:49;102580.09;;;12.71;85.75
44349;BME280;30068;50.986;4.564;2022-09-20T08:25:14;102594.44;;;12.70;85.94
44349;BME280;30068;50.986;4.564;2022-09-20T08:27:41;102591.34;;;12.76;84.93
44349;BME280;30068;50.986;4.564;2022-09-20T08:30:07;102587.09;;;12.59;85.78
44349;BME280;30068;50.986;4.564;2022-09-20T08:32:32;102591.00;;;12.68;86.82
44349;BME280;30068;50.986;4.564;2022-09-20T08:34:58;102591.75;;;12.70;86.70
44349;BME280;30068;50.986;4.564;2022-09-20T08:37:23;102589.22;;;13.10;85.93
44349;BME280;30068;50.986;4.564;2022-09-20T08:39:48;102594.69;;;13.08;85.83
44349;BME280;30068;50.986;4.564;2022-09-20T08:42:19;102594.75;;;13.21;85.59
44349;BME280;30068;50.986;4.564;2022-09-20T08:44:46;102592.28;;;13.44;84.94
44349;BME280;30068;50.986;4.564;2022-09-20T08:47:18;102596.72;;;13.58;84.68
44349;BME280;30068;50.986;4.564;2022-09-20T08:49:45;102593.34;;;13.69;83.79
44349;BME280;30068;50.986;4.564;2022-09-20T08:52:13;102597.44;;;13.74;83.35
44349;BME280;30068;50.986;4.564;2022-09-20T08:54:40;102589.84;;;13.54;83.70
44349;BME280;30068;50.986;4.564;2022-09-20T08:57:14;102599.81;;;13.52;84.27
44349;BME280;30068;50.986;4.564;2022-09-20T08:59:40;102593.50;;;13.26;84.53
44349;BME280;30068;50.986;4.564;2022-09-20T09:02:08;102593.50;;;13.53;84.18
44349;BME280;30068;50.986;4.564;2022-09-20T09:04:37;102581.34;;;13.87;83.30
44349;BME280;30068;50.986;4.564;2022-09-20T09:07:02;102595.44;;;13.91;82.79
44349;BME280;30068;50.986;4.564;2022-09-20T09:09:28;102587.50;;;14.02;82.79
44349;BME280;30068;50.986;4.564;2022-09-20T09:11:54;102586.78;;;13.73;82.53
44349;BME280;30068;50.986;4.564;2022-09-20T09:17:08;102590.88;;;13.78;81.63
44349;BME280;30068;50.986;4.564;2022-09-20T09:22:19;102597.34;;;13.89;81.34
44349;BME280;30068;50.986;4.564;2022-09-20T09:24:45;102605.59;;;13.85;82.50
44349;BME280;30068;50.986;4.564;2022-09-20T09:27:29;102602.22;;;14.09;80.35
44349;BME280;30068;50.986;4.564;2022-09-20T09:29:55;102611.53;;;13.91;82.73
44349;BME280;30068;50.986;4.564;2022-09-20T09:32:22;102611.31;;;13.94;80.17
44349;BME280;30068;50.986;4.564;2022-09-20T09:34:48;102603.16;;;14.08;79.85
44349;BME280;30068;50.986;4.564;2022-09-20T09:37:21;102602.03;;;14.24;80.61
44349;BME280;30068;50.986;4.564;2022-09-20T09:39:46;102606.38;;;14.13;80.50
44349;BME280;30068;50.986;4.564;2022-09-20T09:47:38;102601.88;;;14.01;81.22
44349;BME280;30068;50.986;4.564;2022-09-20T09:50:04;102611.91;;;14.24;79.61
44349;BME280;30068;50.986;4.564;2022-09-20T09:52:29;102608.56;;;14.33;78.97
44349;BME280;30068;50.986;4.564;2022-09-20T09:54:57;102601.94;;;14.39;79.48
44349;BME280;30068;50.986;4.564;2022-09-20T10:12:58;102608.56;;;14.33;78.66
44349;BME280;30068;50.986;4.564;2022-09-20T10:15:36;102608.69;;;14.32;80.51
44349;BME280;30068;50.986;4.564;2022-09-20T10:20:49;102606.09;;;14.30;78.57
44349;BME280;30068;50.986;4.564;2022-09-20T10:28:47;102601.28;;;14.60;80.02
44349;BME280;30068;50.986;4.564;2022-09-20T10:33:44;102601.94;;;14.51;79.81
44349;BME280;30068;50.986;4.564;2022-09-20T10:38:48;102603.63;;;14.40;80.89
44349;BME280;30068;50.986;4.564;2022-09-20T10:49:32;102600.56;;;15.08;76.52
44349;BME280;30068;50.986;4.564;2022-09-20T10:56:55;102598.50;;;15.11;75.41
44349;BME280;30068;50.986;4.564;2022-09-20T11:02:03;102597.84;;;15.68;73.07
44349;BME280;30068;50.986;4.564;2022-09-20T11:07:09;102604.00;;;15.33;76.94
44349;BME280;30068;50.986;4.564;2022-09-20T11:09:36;102589.84;;;15.42;75.93
44349;BME280;30068;50.986;4.564;2022-09-20T11:12:24;102596.22;;;15.18;74.68
44349;BME280;30068;50.986;4.564;2022-09-20T11:14:53;102601.38;;;15.08;76.05
44349;BME280;30068;50.986;4.564;2022-09-20T11:17:31;102605.72;;;14.98;76.98
44349;BME280;30068;50.986;4.564;2022-09-20T11:19:59;102609.44;;;15.08;78.69
44349;BME280;30068;50.986;4.564;2022-09-20T11:22:32;102604.97;;;14.96;77.50
44349;BME280;30068;50.986;4.564;2022-09-20T11:25:11;102611.81;;;15.13;77.42
44349;BME280;30068;50.986;4.564;2022-09-20T11:27:45;102617.78;;;15.29;75.53
44349;BME280;30068;50.986;4.564;2022-09-20T11:30:16;102613.97;;;15.20;77.70
44349;BME280;30068;50.986;4.564;2022-09-20T11:37:43;102603.94;;;15.22;74.66
44349;BME280;30068;50.986;4.564;2022-09-20T11:42:43;102601.38;;;15.21;74.74
44349;BME280;30068;50.986;4.564;2022-09-20T11:45:10;102598.78;;;15.19;72.98
44349;BME280;30068;50.986;4.564;2022-09-20T11:52:40;102606.91;;;15.30;72.80
44349;BME280;30068;50.986;4.564;2022-09-20T11:55:27;102599.25;;;15.37;73.48
44349;BME280;30068;50.986;4.564;2022-09-20T11:58:05;102599.59;;;15.32;71.86
44349;BME280;30068;50.986;4.564;2022-09-20T12:00:32;102590.84;;;15.65;72.57
44349;BME280;30068;50.986;4.564;2022-09-20T12:02:59;102593.97;;;15.83;73.26
44349;BME280;30068;50.986;4.564;2022-09-20T12:05:29;102592.91;;;15.97;71.48
44349;BME280;30068;50.986;4.564;2022-09-20T12:07:57;102588.16;;;16.00;72.76
44349;BME280;30068;50.986;4.564;2022-09-20T12:10:24;102591.13;;;16.19;70.87
44349;BME280;30068;50.986;4.564;2022-09-20T12:12:54;102586.75;;;16.52;71.39
44349;BME280;30068;50.986;4.564;2022-09-20T12:25:57;102581.16;;;15.87;69.31
44349;BME280;30068;50.986;4.564;2022-09-20T12:28:32;102586.44;;;15.99;70.38
44349;BME280;30068;50.986;4.564;2022-09-20T12:36:30;102588.63;;;15.94;69.51
44349;BME280;30068;50.986;4.564;2022-09-20T12:39:02;102590.16;;;16.32;68.39
44349;BME280;30068;50.986;4.564;2022-09-20T12:41:43;102589.69;;;16.27;65.51
44349;BME280;30068;50.986;4.564;2022-09-20T12:44:28;102575.13;;;16.40;66.98
44349;BME280;30068;50.986;4.564;2022-09-20T12:49:34;102585.38;;;16.13;65.24
44349;BME280;30068;50.986;4.564;2022-09-20T12:53:07;102585.50;;;16.11;68.67
44349;BME280;30068;50.986;4.564;2022-09-20T12:57:50;102580.84;;;16.25;64.64
44349;BME280;30068;50.986;4.564;2022-09-20T13:00:28;102588.06;;;16.13;67.17
44349;BME280;30068;50.986;4.564;2022-09-20T13:02:56;102591.19;;;16.31;68.45
44349;BME280;30068;50.986;4.564;2022-09-20T13:05:34;102585.53;;;16.45;64.95
44349;BME280;30068;50.986;4.564;2022-09-20T13:08:04;102586.75;;;16.30;65.22
44349;BME280;30068;50.986;4.564;2022-09-20T13:10:39;102584.78;;;16.32;65.97
44349;BME280;30068;50.986;4.564;2022-09-20T13:13:11;102581.34;;;16.07;66.72
44349;BME280;30068;50.986;4.564;2022-09-20T13:15:39;102581.06;;;15.99;66.62
44349;BME280;30068;50.986;4.564;2022-09-20T13:18:06;102577.75;;;15.96;65.96
44349;BME280;30068;50.986;4.564;2022-09-20T13:20:36;102571.84;;;15.91;63.99
44349;BME280;30068;50.986;4.564;2022-09-20T13:23:04;102575.41;;;15.91;64.98
44349;BME280;30068;50.986;4.564;2022-09-20T13:25:29;102581.25;;;15.85;63.90
44349;BME280;30068;50.986;4.564;2022-09-20T13:27:59;102569.75;;;15.83;65.96
44349;BME280;30068;50.986;4.564;2022-09-20T13:30:27;102574.53;;;15.79;65.50
44349;BME280;30068;50.986;4.564;2022-09-20T13:33:20;102575.66;;;15.88;66.04
44349;BME280;30068;50.986;4.564;2022-09-20T13:35:44;102575.66;;;15.88;67.42
44349;BME280;30068;50.986;4.564;2022-09-20T13:38:11;102578.84;;;16.04;65.40
44349;BME280;30068;50.986;4.564;2022-09-20T13:40:43;102576.22;;;16.15;66.73
44349;BME280;30068;50.986;4.564;2022-09-20T13:43:31;102574.28;;;16.29;66.77
44349;BME280;30068;50.986;4.564;2022-09-20T13:45:58;102575.63;;;16.34;68.74
44349;BME280;30068;50.986;4.564;2022-09-20T13:48:28;102576.00;;;16.41;65.20
44349;BME280;30068;50.986;4.564;2022-09-20T13:50:54;102565.69;;;16.46;66.81
44349;BME280;30068;50.986;4.564;2022-09-20T13:53:20;102572.53;;;16.28;66.81
44349;BME280;30068;50.986;4.564;2022-09-20T13:55:46;102571.19;;;16.22;69.89
44349;BME280;30068;50.986;4.564;2022-09-20T13:58:20;102582.84;;;16.34;67.13
44349;BME280;30068;50.986;4.564;2022-09-20T14:00:47;102574.66;;;16.35;70.00
44349;BME280;30068;50.986;4.564;2022-09-20T14:03:17;102569.38;;;16.34;67.52
44349;BME280;30068;50.986;4.564;2022-09-20T14:05:52;102578.66;;;16.18;67.55
44349;BME280;30068;50.986;4.564;2022-09-20T14:08:20;102569.03;;;15.92;69.41
44349;BME280;30068;50.986;4.564;2022-09-20T14:10:47;102567.59;;;15.88;67.36
44349;BME280;30068;50.986;4.564;2022-09-20T14:13:14;102568.94;;;15.94;67.82
44349;BME280;30068;50.986;4.564;2022-09-20T14:15:44;102564.88;;;15.88;68.46
44349;BME280;30068;50.986;4.564;2022-09-20T14:18:17;102563.88;;;15.78;69.69
44349;BME280;30068;50.986;4.564;2022-09-20T14:20:45;102567.53;;;15.77;67.30
44349;BME280;30068;50.986;4.564;2022-09-20T14:23:24;102562.69;;;15.82;69.60
44349;BME280;30068;50.986;4.564;2022-09-20T14:28:34;102564.78;;;15.90;69.33
44349;BME280;30068;50.986;4.564;2022-09-20T14:31:04;102563.56;;;15.94;70.13
44349;BME280;30068;50.986;4.564;2022-09-20T14:33:31;102564.31;;;16.07;69.86
44349;BME280;30068;50.986;4.564;2022-09-20T14:35:57;102568.34;;;16.12;66.35
44349;BME280;30068;50.986;4.564;2022-09-20T14:38:23;102571.31;;;16.20;68.79
44349;BME280;30068;50.986;4.564;2022-09-20T14:40:51;102571.78;;;16.03;69.05
44349;BME280;30068;50.986;4.564;2022-09-20T14:45:49;102570.53;;;15.96;67.57
44349;BME280;30068;50.986;4.564;2022-09-20T14:53:30;102577.13;;;15.92;70.93
44349;BME280;30068;50.986;4.564;2022-09-20T14:58:23;102572.75;;;16.02;72.13
44349;BME280;30068;50.986;4.564;2022-09-20T15:00:57;102566.84;;;15.86;71.95
44349;BME280;30068;50.986;4.564;2022-09-20T15:03:33;102562.69;;;15.82;73.39
44349;BME280;30068;50.986;4.564;2022-09-20T15:06:01;102566.91;;;15.73;72.84
44349;BME280;30068;50.986;4.564;2022-09-20T15:08:26;102571.91;;;15.67;72.69
44349;BME280;30068;50.986;4.564;2022-09-20T15:10:51;102567.28;;;15.69;72.83
44349;BME280;30068;50.986;4.564;2022-09-20T15:13:17;102557.59;;;15.66;73.16
44349;BME280;30068;50.986;4.564;2022-09-20T15:15:49;102570.94;;;15.68;73.00
44349;BME280;30068;50.986;4.564;2022-09-20T15:18:19;102567.13;;;15.70;73.12
44349;BME280;30068;50.986;4.564;2022-09-20T15:20:45;102558.97;;;15.72;72.86
44349;BME280;30068;50.986;4.564;2022-09-20T15:23:11;102561.28;;;15.76;73.99
44349;BME280;30068;50.986;4.564;2022-09-20T15:25:37;102559.59;;;15.75;72.18
44349;BME280;30068;50.986;4.564;2022-09-20T15:28:02;102556.53;;;15.80;74.13
44349;BME280;30068;50.986;4.564;2022-09-20T15:30:28;102564.81;;;15.66;72.44
44349;BME280;30068;50.986;4.564;2022-09-20T15:32:53;102563.84;;;15.67;72.72
44349;BME280;30068;50.986;4.564;2022-09-20T15:35:19;102558.94;;;15.61;74.69
44349;BME280;30068;50.986;4.564;2022-09-20T15:37:46;102552.50;;;15.74;73.74
44349;BME280;30068;50.986;4.564;2022-09-20T15:40:11;102549.72;;;15.87;72.00
44349;BME280;30068;50.986;4.564;2022-09-20T15:42:43;102553.25;;;15.88;73.99
44349;BME280;30068;50.986;4.564;2022-09-20T15:45:11;102553.34;;;15.75;74.87
44349;BME280;30068;50.986;4.564;2022-09-20T15:47:38;102546.75;;;15.79;74.91
44349;BME280;30068;50.986;4.564;2022-09-20T15:50:05;102549.16;;;15.71;73.40
44349;BME280;30068;50.986;4.564;2022-09-20T15:52:36;102544.63;;;15.71;72.98
44349;BME280;30068;50.986;4.564;2022-09-20T15:55:03;102542.09;;;15.81;74.42
44349;BME280;30068;50.986;4.564;2022-09-20T15:57:29;102540.06;;;15.96;75.40
44349;BME280;30068;50.986;4.564;2022-09-20T15:59:54;102551.06;;;16.04;73.94
44349;BME280;30068;50.986;4.564;2022-09-20T16:02:20;102546.69;;;16.03;72.00
44349;BME280;30068;50.986;4.564;2022-09-20T16:04:46;102550.34;;;16.02;72.74
44349;BME280;30068;50.986;4.564;2022-09-20T16:07:11;102555.50;;;16.05;72.66
44349;BME280;30068;50.986;4.564;2022-09-20T16:09:36;102551.22;;;16.02;73.03
44349;BME280;30068;50.986;4.564;2022-09-20T16:12:02;102555.47;;;15.83;71.39
44349;BME280;30068;50.986;4.564;2022-09-20T16:14:28;102553.69;;;15.70;71.27
44349;BME280;30068;50.986;4.564;2022-09-20T16:16:53;102556.53;;;15.69;72.35
44349;BME280;30068;50.986;4.564;2022-09-20T16:19:20;102561.66;;;15.72;71.50
44349;BME280;30068;50.986;4.564;2022-09-20T16:24:15;102564.59;;;15.69;72.37
44349;BME280;30068;50.986;4.564;2022-09-20T16:26:41;102562.63;;;15.71;72.87
44349;BME280;30068;50.986;4.564;2022-09-20T16:29:07;102554.94;;;15.77;71.94
44349;BME280;30068;50.986;4.564;2022-09-20T16:31:39;102555.75;;;15.67;73.04
44349;BME280;30068;50.986;4.564;2022-09-20T16:36:43;102568.16;;;15.80;71.51
44349;BME280;30068;50.986;4.564;2022-09-20T16:39:09;102571.28;;;15.63;72.32
44349;BME280;30068;50.986;4.564;2022-09-20T16:41:35;102576.13;;;15.82;72.33
44349;BME280;30068;50.986;4.564;2022-09-20T16:44:03;102574.22;;;15.60;73.29
44349;BME280;30068;50.986;4.564;2022-09-20T16:46:29;102577.50;;;15.64;73.03
44349;BME280;30068;50.986;4.564;2022-09-20T16:48:54;102574.00;;;15.51;73.87
44349;BME280;30068;50.986;4.564;2022-09-20T16:51:24;102579.41;;;15.27;75.97
44349;BME280;30068;50.986;4.564;2022-09-20T16:53:56;102578.59;;;15.37;73.58
44349;BME280;30068;50.986;4.564;2022-09-20T16:56:24;102583.69;;;15.29;76.26
44349;BME280;30068;50.986;4.564;2022-09-20T16:58:50;102585.59;;;15.40;74.86
44349;BME280;30068;50.986;4.564;2022-09-20T17:01:15;102582.53;;;15.45;73.15
44349;BME280;30068;50.986;4.564;2022-09-20T17:03:42;102585.59;;;15.40;75.72
44349;BME280;30068;50.986;4.564;2022-09-20T17:06:08;102586.53;;;15.15;76.81
44349;BME280;30068;50.986;4.564;2022-09-20T17:08:34;102582.88;;;15.16;73.88
44349;BME280;30068;50.986;4.564;2022-09-20T17:11:14;102580.03;;;15.30;75.10
44349;BME280;30068;50.986;4.564;2022-09-20T17:13:40;102583.75;;;15.40;75.13
44349;BME280;30068;50.986;4.564;2022-09-20T17:16:14;102586.94;;;15.46;74.62
44349;BME280;30068;50.986;4.564;2022-09-20T17:18:40;102585.13;;;15.46;74.66
44349;BME280;30068;50.986;4.564;2022-09-20T17:21:10;102594.38;;;15.18;76.30
44349;BME280;30068;50.986;4.564;2022-09-20T17:23:37;102586.38;;;15.29;75.67
44349;BME280;30068;50.986;4.564;2022-09-20T17:26:04;102590.56;;;15.33;75.18
44349;BME280;30068;50.986;4.564;2022-09-20T17:28:34;102588.72;;;15.34;75.31
44349;BME280;30068;50.986;4.564;2022-09-20T17:31:00;102591.47;;;15.21;75.71
44349;BME280;30068;50.986;4.564;2022-09-20T17:33:26;102595.50;;;15.03;76.31
44349;BME280;30068;50.986;4.564;2022-09-20T17:35:53;102596.97;;;14.71;77.37
44349;BME280;30068;50.986;4.564;2022-09-20T17:38:19;102600.31;;;14.61;77.98
44349;BME280;30068;50.986;4.564;2022-09-20T17:40:45;102600.84;;;14.54;78.32
44349;BME280;30068;50.986;4.564;2022-09-20T17:43:10;102608.78;;;14.30;79.81
44349;BME280;30068;50.986;4.564;2022-09-20T17:45:35;102599.34;;;14.24;80.02
44349;BME280;30068;50.986;4.564;2022-09-20T17:48:01;102602.34;;;14.33;79.82
44349;BME280;30068;50.986;4.564;2022-09-20T17:50:28;102598.66;;;14.21;79.63
44349;BME280;30068;50.986;4.564;2022-09-20T17:52:56;102599.00;;;14.04;80.52
44349;BME280;30068;50.986;4.564;2022-09-20T17:55:21;102604.59;;;13.74;81.40
44349;BME280;30068;50.986;4.564;2022-09-20T17:57:47;102613.59;;;13.60;81.80